sensor_id;sensor_type;location;lat;lon;timestamp;temperature;humidity
5280;DHT22;2663;53.588;10.010;2023-09-18T00:00:30;21.60;99.90
5280;DHT22;2663;53.588;10.010;2023-09-18T00:02:57;21.10;99.90
5280;DHT22;2663;53.588;10.010;2023-09-18T00:05:24;21.10;99.90
5280;DHT22;2663;53.588;10.010;2023-09-18T00:07:50;21.00;99.90
5280;DHT22;2663;53.588;10.010;2023-09-18T00:10:17;21.00;99.90
5280;DHT22;2663;53.588;10.010;2023-09-18T00:12:44;21.00;99.90
5280;DHT22;2663;53.588;10.010;2023-09-18T00:15:11;20.80;99.90
5280;DHT22;2663;53.588;10.010;2023-09-18T00:17:37;20.90;99.90
5280;DHT22;2663;53.588;10.010;2023-09-18T00:20:05;20.90;99.90
5280;DHT22;2663;53.588;10.010;2023-09-18T00:22:33;21.00;99.90
5280;DHT22;2663;53.588;10.010;2023-09-18T00:25:00;21.00;99.90
5280;DHT22;2663;53.588;10.010;2023-09-18T00:27:29;21.00;99.90
5280;DHT22;2663;53.588;10.010;2023-09-18T00:29:56;20.90;99.90
5280;DHT22;2663;53.588;10.010;2023-09-18T00:32:22;20.90;99.90
5280;DHT22;2663;53.588;10.010;2023-09-18T00:34:49;20.90;99.90
5280;DHT22;2663;53.588;10.010;2023-09-18T00:37:16;20.90;99.90
5280;DHT22;2663;53.588;10.010;2023-09-18T00:39:43;20.90;99.90
5280;DHT22;2663;53.588;10.010;2023-09-18T00:42:10;20.90;99.90
5280;DHT22;2663;53.588;10.010;2023-09-18T00:44:42;20.90;99.90
5280;DHT22;2663;53.588;10.010;2023-09-18T00:47:09;20.90;99.90
5280;DHT22;2663;53.588;10.010;2023-09-18T00:49:37;20.90;99.90
5280;DHT22;2663;53.588;10.010;2023-09-18T00:52:05;20.90;99.90
5280;DHT22;2663;53.588;10.010;2023-09-18T00:54:34;20.80;99.90
5280;DHT22;2663;53.588;10.010;2023-09-18T00:57:03;20.80;99.90
5280;DHT22;2663;53.588;10.010;2023-09-18T00:59:29;20.90;99.90
5280;DHT22;2663;53.588;10.010;2023-09-18T01:01:57;20.90;99.90
5280;DHT22;2663;53.588;10.010;2023-09-18T01:04:25;20.90;99.90
5280;DHT22;2663;53.588;10.010;2023-09-18T01:06:53;20.90;99.90
5280;DHT22;2663;53.588;10.010;2023-09-18T01:09:20;20.80;99.90
5280;DHT22;2663;53.588;10.010;2023-09-18T01:15:01;20.60;99.90
5280;DHT22;2663;53.588;10.010;2023-09-18T01:17:35;20.80;99.90
5280;DHT22;2663;53.588;10.010;2023-09-18T01:20:04;20.70;99.90
5280;DHT22;2663;53.588;10.010;2023-09-18T01:22:32;20.60;99.90
5280;DHT22;2663;53.588;10.010;2023-09-18T01:24:59;20.50;99.90
5280;DHT22;2663;53.588;10.010;2023-09-18T01:27:25;20.50;99.90
5280;DHT22;2663;53.588;10.010;2023-09-18T01:29:52;20.50;99.90
5280;DHT22;2663;53.588;10.010;2023-09-18T01:32:21;20.50;99.90
5280;DHT22;2663;53.588;10.010;2023-09-18T01:34:53;20.60;99.90
5280;DHT22;2663;53.588;10.010;2023-09-18T01:37:23;20.60;99.90
5280;DHT22;2663;53.588;10.010;2023-09-18T01:39:51;20.60;99.90
5280;DHT22;2663;53.588;10.010;2023-09-18T01:42:19;20.50;99.90
5280;DHT22;2663;53.588;10.010;2023-09-18T01:44:47;20.50;99.90
5280;DHT22;2663;53.588;10.010;2023-09-18T01:47:18;20.50;99.90
5280;DHT22;2663;53.588;10.010;2023-09-18T01:49:45;20.50;99.90
5280;DHT22;2663;53.588;10.010;2023-09-18T01:52:13;20.50;99.90
5280;DHT22;2663;53.588;10.010;2023-09-18T01:54:40;20.50;99.90
5280;DHT22;2663;53.588;10.010;2023-09-18T01:57:07;20.50;99.90
5280;DHT22;2663;53.588;10.010;2023-09-18T01:59:34;20.40;99.90
5280;DHT22;2663;53.588;10.010;2023-09-18T02:02:02;20.60;99.90
5280;DHT22;2663;53.588;10.010;2023-09-18T02:04:34;20.50;99.90
5280;DHT22;2663;53.588;10.010;2023-09-18T02:07:21;20.60;99.90
5280;DHT22;2663;53.588;10.010;2023-09-18T02:09:48;20.50;99.90
5280;DHT22;2663;53.588;10.010;2023-09-18T02:12:15;20.50;99.90
5280;DHT22;2663;53.588;10.010;2023-09-18T02:14:45;20.40;99.90
5280;DHT22;2663;53.588;10.010;2023-09-18T02:17:11;20.40;99.90
5280;DHT22;2663;53.588;10.010;2023-09-18T02:19:38;20.40;99.90
5280;DHT22;2663;53.588;10.010;2023-09-18T02:22:05;20.40;99.90
5280;DHT22;2663;53.588;10.010;2023-09-18T02:24:33;20.50;99.90
5280;DHT22;2663;53.588;10.010;2023-09-18T02:27:03;20.40;99.90
5280;DHT22;2663;53.588;10.010;2023-09-18T02:29:30;20.40;99.90
5280;DHT22;2663;53.588;10.010;2023-09-18T02:31:57;20.50;99.90
5280;DHT22;2663;53.588;10.010;2023-09-18T02:34:24;20.50;99.90
5280;DHT22;2663;53.588;10.010;2023-09-18T02:36:50;20.40;99.90
5280;DHT22;2663;53.588;10.010;2023-09-18T02:39:17;20.30;99.90
5280;DHT22;2663;53.588;10.010;2023-09-18T02:41:44;20.20;99.90
5280;DHT22;2663;53.588;10.010;2023-09-18T02:44:10;20.20;99.90
5280;DHT22;2663;53.588;10.010;2023-09-18T02:46:38;20.20;99.90
5280;DHT22;2663;53.588;10.010;2023-09-18T02:49:05;20.30;99.90
5280;DHT22;2663;53.588;10.010;2023-09-18T02:51:31;20.30;99.90
5280;DHT22;2663;53.588;10.010;2023-09-18T02:53:58;20.20;99.90
5280;DHT22;2663;53.588;10.010;2023-09-18T02:56:25;20.20;99.90
5280;DHT22;2663;53.588;10.010;2023-09-18T02:58:52;20.10;99.90
5280;DHT22;2663;53.588;10.010;2023-09-18T03:01:19;20.10;99.90
5280;DHT22;2663;53.588;10.010;2023-09-18T03:03:45;20.10;99.90
5280;DHT22;2663;53.588;10.010;2023-09-18T03:06:12;20.10;99.90
5280;DHT22;2663;53.588;10.010;2023-09-18T03:08:39;20.10;99.90
5280;DHT22;2663;53.588;10.010;2023-09-18T03:11:13;20.20;99.90
5280;DHT22;2663;53.588;10.010;2023-09-18T03:13:44;20.10;99.90
5280;DHT22;2663;53.588;10.010;2023-09-18T03:16:13;20.10;99.90
5280;DHT22;2663;53.588;10.010;2023-09-18T03:18:40;20.00;99.90
5280;DHT22;2663;53.588;10.010;2023-09-18T03:21:07;20.00;99.90
5280;DHT22;2663;53.588;10.010;2023-09-18T03:23:33;19.90;99.90
5280;DHT22;2663;53.588;10.010;2023-09-18T03:26:01;19.80;99.90
5280;DHT22;2663;53.588;10.010;2023-09-18T03:28:27;19.80;99.90
5280;DHT22;2663;53.588;10.010;2023-09-18T03:30:54;19.80;99.90
5280;DHT22;2663;53.588;10.010;2023-09-18T03:33:21;19.80;99.90
5280;DHT22;2663;53.588;10.010;2023-09-18T03:35:49;19.90;99.90
5280;DHT22;2663;53.588;10.010;2023-09-18T03:38:16;19.80;99.90
5280;DHT22;2663;53.588;10.010;2023-09-18T03:40:43;19.80;99.90
5280;DHT22;2663;53.588;10.010;2023-09-18T03:43:10;19.80;99.90
5280;DHT22;2663;53.588;10.010;2023-09-18T03:45:39;19.90;99.90
5280;DHT22;2663;53.588;10.010;2023-09-18T03:48:10;19.90;99.90
5280;DHT22;2663;53.588;10.010;2023-09-18T03:50:36;19.80;99.90
5280;DHT22;2663;53.588;10.010;2023-09-18T03:53:03;19.80;99.90
5280;DHT22;2663;53.588;10.010;2023-09-18T03:55:30;19.80;99.90
5280;DHT22;2663;53.588;10.010;2023-09-18T03:57:57;19.80;99.90
5280;DHT22;2663;53.588;10.010;2023-09-18T04:00:24;19.80;99.90
5280;DHT22;2663;53.588;10.010;2023-09-18T04:02:50;19.70;99.90
5280;DHT22;2663;53.588;10.010;2023-09-18T04:05:18;19.70;99.90
5280;DHT22;2663;53.588;10.010;2023-09-18T04:07:45;19.70;99.90
5280;DHT22;2663;53.588;10.010;2023-09-18T04:10:14;19.70;99.90
5280;DHT22;2663;53.588;10.010;2023-09-18T04:12:51;19.70;99.90
5280;DHT22;2663;53.588;10.010;2023-09-18T04:15:18;19.70;99.90
5280;DHT22;2663;53.588;10.010;2023-09-18T04:17:46;19.70;99.90
5280;DHT22;2663;53.588;10.010;2023-09-18T04:20:13;19.70;99.90
5280;DHT22;2663;53.588;10.010;2023-09-18T04:22:45;19.60;99.90
5280;DHT22;2663;53.588;10.010;2023-09-18T04:25:16;19.60;99.90
5280;DHT22;2663;53.588;10.010;2023-09-18T04:27:43;19.60;99.90
5280;DHT22;2663;53.588;10.010;2023-09-18T04:30:10;19.60;99.90
5280;DHT22;2663;53.588;10.010;2023-09-18T04:32:37;19.60;99.90
5280;DHT22;2663;53.588;10.010;2023-09-18T04:35:05;19.60;99.90
5280;DHT22;2663;53.588;10.010;2023-09-18T04:37:36;19.60;99.90
5280;DHT22;2663;53.588;10.010;2023-09-18T04:40:05;19.60;99.90
5280;DHT22;2663;53.588;10.010;2023-09-18T04:42:37;19.60;99.90
5280;DHT22;2663;53.588;10.010;2023-09-18T04:45:05;19.50;99.90
5280;DHT22;2663;53.588;10.010;2023-09-18T04:47:32;18.70;99.90
5280;DHT22;2663;53.588;10.010;2023-09-18T04:49:59;19.50;99.90
5280;DHT22;2663;53.588;10.010;2023-09-18T04:52:26;19.50;99.90
5280;DHT22;2663;53.588;10.010;2023-09-18T04:54:52;19.50;99.90
5280;DHT22;2663;53.588;10.010;2023-09-18T04:57:20;19.50;99.90
5280;DHT22;2663;53.588;10.010;2023-09-18T04:59:49;19.30;99.90
5280;DHT22;2663;53.588;10.010;2023-09-18T05:02:31;19.50;99.90
5280;DHT22;2663;53.588;10.010;2023-09-18T05:04:58;19.50;99.90
5280;DHT22;2663;53.588;10.010;2023-09-18T05:07:27;19.50;99.90
5280;DHT22;2663;53.588;10.010;2023-09-18T05:09:54;19.50;99.90
5280;DHT22;2663;53.588;10.010;2023-09-18T05:12:20;19.40;99.90
5280;DHT22;2663;53.588;10.010;2023-09-18T05:14:48;19.50;99.90
5280;DHT22;2663;53.588;10.010;2023-09-18T05:17:16;19.50;99.90
5280;DHT22;2663;53.588;10.010;2023-09-18T05:19:44;19.50;99.90
5280;DHT22;2663;53.588;10.010;2023-09-18T05:22:11;20.00;99.90
5280;DHT22;2663;53.588;10.010;2023-09-18T05:24:38;19.50;99.90
5280;DHT22;2663;53.588;10.010;2023-09-18T05:27:05;19.60;99.90
5280;DHT22;2663;53.588;10.010;2023-09-18T05:29:34;19.50;99.90
5280;DHT22;2663;53.588;10.010;2023-09-18T05:32:04;19.60;99.90
5280;DHT22;2663;53.588;10.010;2023-09-18T05:34:31;19.60;99.90
5280;DHT22;2663;53.588;10.010;2023-09-18T05:36:58;19.60;99.90
5280;DHT22;2663;53.588;10.010;2023-09-18T05:39:25;19.60;99.90
5280;DHT22;2663;53.588;10.010;2023-09-18T05:41:52;19.70;99.90
5280;DHT22;2663;53.588;10.010;2023-09-18T05:44:19;19.80;99.90
5280;DHT22;2663;53.588;10.010;2023-09-18T05:46:46;19.90;99.90
5280;DHT22;2663;53.588;10.010;2023-09-18T05:49:13;20.00;99.90
5280;DHT22;2663;53.588;10.010;2023-09-18T05:51:39;20.10;99.90
5280;DHT22;2663;53.588;10.010;2023-09-18T05:54:06;20.10;99.90
5280;DHT22;2663;53.588;10.010;2023-09-18T05:56:33;20.20;99.90
5280;DHT22;2663;53.588;10.010;2023-09-18T05:59:00;20.10;99.90
5280;DHT22;2663;53.588;10.010;2023-09-18T06:01:27;20.00;99.90
5280;DHT22;2663;53.588;10.010;2023-09-18T06:03:55;20.00;99.90
5280;DHT22;2663;53.588;10.010;2023-09-18T06:06:22;20.10;99.90
5280;DHT22;2663;53.588;10.010;2023-09-18T06:08:48;20.10;99.90
5280;DHT22;2663;53.588;10.010;2023-09-18T06:11:15;20.10;99.90
5280;DHT22;2663;53.588;10.010;2023-09-18T06:13:42;19.90;99.90
5280;DHT22;2663;53.588;10.010;2023-09-18T06:16:08;19.80;99.90
5280;DHT22;2663;53.588;10.010;2023-09-18T06:18:35;19.70;99.90
5280;DHT22;2663;53.588;10.010;2023-09-18T06:21:04;19.70;99.90
5280;DHT22;2663;53.588;10.010;2023-09-18T06:23:32;19.70;99.90
5280;DHT22;2663;53.588;10.010;2023-09-18T06:25:59;19.80;99.90
5280;DHT22;2663;53.588;10.010;2023-09-18T06:28:26;19.80;99.90
5280;DHT22;2663;53.588;10.010;2023-09-18T06:30:53;19.80;99.90
5280;DHT22;2663;53.588;10.010;2023-09-18T06:33:21;19.80;99.90
5280;DHT22;2663;53.588;10.010;2023-09-18T06:35:48;19.80;99.90
5280;DHT22;2663;53.588;10.010;2023-09-18T06:38:15;19.90;99.90
5280;DHT22;2663;53.588;10.010;2023-09-18T06:40:42;20.00;99.90
5280;DHT22;2663;53.588;10.010;2023-09-18T06:43:09;19.90;99.90
5280;DHT22;2663;53.588;10.010;2023-09-18T06:45:35;20.00;99.90
5280;DHT22;2663;53.588;10.010;2023-09-18T06:48:04;20.10;99.90
5280;DHT22;2663;53.588;10.010;2023-09-18T06:50:31;20.10;99.90
5280;DHT22;2663;53.588;10.010;2023-09-18T06:52:58;20.10;99.90
5280;DHT22;2663;53.588;10.010;2023-09-18T06:55:25;20.20;99.90
5280;DHT22;2663;53.588;10.010;2023-09-18T06:57:52;20.20;99.90
5280;DHT22;2663;53.588;10.010;2023-09-18T07:00:19;20.30;99.90
5280;DHT22;2663;53.588;10.010;2023-09-18T07:02:47;20.40;99.90
5280;DHT22;2663;53.588;10.010;2023-09-18T07:05:16;20.40;99.90
5280;DHT22;2663;53.588;10.010;2023-09-18T07:07:43;20.50;99.90
5280;DHT22;2663;53.588;10.010;2023-09-18T07:10:10;20.50;99.90
5280;DHT22;2663;53.588;10.010;2023-09-18T07:12:37;20.60;99.90
5280;DHT22;2663;53.588;10.010;2023-09-18T07:15:04;20.60;99.90
5280;DHT22;2663;53.588;10.010;2023-09-18T07:17:35;20.70;99.90
5280;DHT22;2663;53.588;10.010;2023-09-18T07:20:02;20.80;99.90
5280;DHT22;2663;53.588;10.010;2023-09-18T07:22:46;20.90;99.90
5280;DHT22;2663;53.588;10.010;2023-09-18T07:25:14;21.00;99.90
5280;DHT22;2663;53.588;10.010;2023-09-18T07:27:41;21.10;99.90
5280;DHT22;2663;53.588;10.010;2023-09-18T07:30:12;21.20;99.90
5280;DHT22;2663;53.588;10.010;2023-09-18T07:32:40;21.20;99.90
5280;DHT22;2663;53.588;10.010;2023-09-18T07:35:07;21.40;99.90
5280;DHT22;2663;53.588;10.010;2023-09-18T07:37:35;21.40;99.90
5280;DHT22;2663;53.588;10.010;2023-09-18T07:40:04;21.50;99.90
5280;DHT22;2663;53.588;10.010;2023-09-18T07:42:31;21.50;99.90
5280;DHT22;2663;53.588;10.010;2023-09-18T07:44:57;21.50;99.90
5280;DHT22;2663;53.588;10.010;2023-09-18T07:47:25;21.50;99.90
5280;DHT22;2663;53.588;10.010;2023-09-18T07:49:52;21.50;99.90
5280;DHT22;2663;53.588;10.010;2023-09-18T07:52:21;21.50;99.90
5280;DHT22;2663;53.588;10.010;2023-09-18T07:54:47;21.50;99.90
5280;DHT22;2663;53.588;10.010;2023-09-18T07:57:15;21.70;99.90
5280;DHT22;2663;53.588;10.010;2023-09-18T07:59:42;21.70;99.90
5280;DHT22;2663;53.588;10.010;2023-09-18T08:02:09;21.80;99.90
5280;DHT22;2663;53.588;10.010;2023-09-18T08:04:36;21.90;99.90
5280;DHT22;2663;53.588;10.010;2023-09-18T08:07:03;21.90;99.90
5280;DHT22;2663;53.588;10.010;2023-09-18T08:09:33;22.00;99.90
5280;DHT22;2663;53.588;10.010;2023-09-18T08:12:03;22.00;99.90
5280;DHT22;2663;53.588;10.010;2023-09-18T08:14:30;22.00;99.90
5280;DHT22;2663;53.588;10.010;2023-09-18T08:16:58;21.90;99.90
5280;DHT22;2663;53.588;10.010;2023-09-18T08:19:26;21.90;99.90
5280;DHT22;2663;53.588;10.010;2023-09-18T08:21:53;21.90;99.90
5280;DHT22;2663;53.588;10.010;2023-09-18T08:24:21;21.90;99.90
5280;DHT22;2663;53.588;10.010;2023-09-18T08:26:49;22.00;99.90
5280;DHT22;2663;53.588;10.010;2023-09-18T08:29:15;21.90;99.90
5280;DHT22;2663;53.588;10.010;2023-09-18T08:31:42;22.00;99.90
5280;DHT22;2663;53.588;10.010;2023-09-18T08:34:09;22.00;99.90
5280;DHT22;2663;53.588;10.010;2023-09-18T08:36:36;22.00;99.90
5280;DHT22;2663;53.588;10.010;2023-09-18T08:39:03;22.00;99.90
5280;DHT22;2663;53.588;10.010;2023-09-18T08:41:33;22.00;99.90
5280;DHT22;2663;53.588;10.010;2023-09-18T08:44:03;22.00;99.90
5280;DHT22;2663;53.588;10.010;2023-09-18T08:46:30;22.00;99.90
5280;DHT22;2663;53.588;10.010;2023-09-18T08:49:00;21.90;99.90
5280;DHT22;2663;53.588;10.010;2023-09-18T08:51:28;21.90;99.90
5280;DHT22;2663;53.588;10.010;2023-09-18T08:53:56;21.90;99.90
5280;DHT22;2663;53.588;10.010;2023-09-18T08:56:23;21.90;99.90
5280;DHT22;2663;53.588;10.010;2023-09-18T08:58:50;23.30;99.90
5280;DHT22;2663;53.588;10.010;2023-09-18T09:01:17;21.90;99.90
5280;DHT22;2663;53.588;10.010;2023-09-18T09:03:44;21.90;99.90
5280;DHT22;2663;53.588;10.010;2023-09-18T09:06:12;21.80;99.90
5280;DHT22;2663;53.588;10.010;2023-09-18T09:08:39;21.90;99.90
5280;DHT22;2663;53.588;10.010;2023-09-18T09:11:06;21.90;99.90
5280;DHT22;2663;53.588;10.010;2023-09-18T09:13:33;21.90;99.90
5280;DHT22;2663;53.588;10.010;2023-09-18T09:16:12;22.00;99.90
5280;DHT22;2663;53.588;10.010;2023-09-18T09:18:48;22.00;99.90
5280;DHT22;2663;53.588;10.010;2023-09-18T09:21:16;22.00;99.90
5280;DHT22;2663;53.588;10.010;2023-09-18T09:23:51;22.00;99.90
5280;DHT22;2663;53.588;10.010;2023-09-18T09:26:21;22.10;99.90
5280;DHT22;2663;53.588;10.010;2023-09-18T09:28:49;22.20;99.90
5280;DHT22;2663;53.588;10.010;2023-09-18T09:31:29;22.40;99.90
5280;DHT22;2663;53.588;10.010;2023-09-18T09:33:57;22.50;99.90
5280;DHT22;2663;53.588;10.010;2023-09-18T09:36:25;22.60;99.90
5280;DHT22;2663;53.588;10.010;2023-09-18T09:38:58;22.80;99.90
5280;DHT22;2663;53.588;10.010;2023-09-18T09:41:26;22.90;99.90
5280;DHT22;2663;53.588;10.010;2023-09-18T09:43:54;22.90;99.90
5280;DHT22;2663;53.588;10.010;2023-09-18T09:46:22;22.90;99.90
5280;DHT22;2663;53.588;10.010;2023-09-18T09:49:18;23.00;99.90
5280;DHT22;2663;53.588;10.010;2023-09-18T09:51:46;22.90;99.90
5280;DHT22;2663;53.588;10.010;2023-09-18T09:54:13;22.90;99.90
5280;DHT22;2663;53.588;10.010;2023-09-18T09:56:45;22.90;99.90
5280;DHT22;2663;53.588;10.010;2023-09-18T09:59:13;22.90;99.90
5280;DHT22;2663;53.588;10.010;2023-09-18T10:01:41;22.80;99.90
5280;DHT22;2663;53.588;10.010;2023-09-18T10:04:12;22.80;99.90
5280;DHT22;2663;53.588;10.010;2023-09-18T10:06:43;22.70;99.90
5280;DHT22;2663;53.588;10.010;2023-09-18T10:09:12;22.70;99.90
5280;DHT22;2663;53.588;10.010;2023-09-18T10:11:45;22.70;99.90
5280;DHT22;2663;53.588;10.010;2023-09-18T10:14:20;22.80;99.90
5280;DHT22;2663;53.588;10.010;2023-09-18T10:16:53;22.70;99.90
5280;DHT22;2663;53.588;10.010;2023-09-18T10:19:27;22.70;99.90
5280;DHT22;2663;53.588;10.010;2023-09-18T10:24:46;22.70;99.90
5280;DHT22;2663;53.588;10.010;2023-09-18T10:27:14;22.70;99.90
5280;DHT22;2663;53.588;10.010;2023-09-18T10:29:41;22.80;99.90
5280;DHT22;2663;53.588;10.010;2023-09-18T10:32:08;22.80;99.90
5280;DHT22;2663;53.588;10.010;2023-09-18T10:34:35;22.80;99.90
5280;DHT22;2663;53.588;10.010;2023-09-18T10:37:04;22.90;99.90
5280;DHT22;2663;53.588;10.010;2023-09-18T10:39:38;23.00;99.90
5280;DHT22;2663;53.588;10.010;2023-09-18T10:42:09;23.10;99.90
5280;DHT22;2663;53.588;10.010;2023-09-18T10:44:38;23.10;99.90
5280;DHT22;2663;53.588;10.010;2023-09-18T10:47:10;23.10;99.90
5280;DHT22;2663;53.588;10.010;2023-09-18T10:49:37;23.10;99.90
5280;DHT22;2663;53.588;10.010;2023-09-18T10:52:04;23.10;99.90
5280;DHT22;2663;53.588;10.010;2023-09-18T10:54:32;23.10;99.90
5280;DHT22;2663;53.588;10.010;2023-09-18T10:56:59;23.10;99.90
5280;DHT22;2663;53.588;10.010;2023-09-18T10:59:28;23.00;99.90
5280;DHT22;2663;53.588;10.010;2023-09-18T11:01:56;23.00;99.90
5280;DHT22;2663;53.588;10.010;2023-09-18T11:04:23;23.00;99.90
5280;DHT22;2663;53.588;10.010;2023-09-18T11:09:25;22.90;99.90
5280;DHT22;2663;53.588;10.010;2023-09-18T11:11:53;22.90;99.90
5280;DHT22;2663;53.588;10.010;2023-09-18T11:20:23;23.30;99.90
5280;DHT22;2663;53.588;10.010;2023-09-18T11:22:56;23.20;99.90
5280;DHT22;2663;53.588;10.010;2023-09-18T11:25:44;23.10;99.90
5280;DHT22;2663;53.588;10.010;2023-09-18T11:28:16;23.00;99.90
5280;DHT22;2663;53.588;10.010;2023-09-18T11:30:54;23.00;99.90
5280;DHT22;2663;53.588;10.010;2023-09-18T11:38:54;22.90;99.90
5280;DHT22;2663;53.588;10.010;2023-09-18T11:41:26;22.90;99.90
5280;DHT22;2663;53.588;10.010;2023-09-18T11:46:44;23.00;99.90
5280;DHT22;2663;53.588;10.010;2023-09-18T11:49:11;23.00;99.90
5280;DHT22;2663;53.588;10.010;2023-09-18T11:51:41;23.00;99.90
5280;DHT22;2663;53.588;10.010;2023-09-18T11:54:09;23.00;99.90
5280;DHT22;2663;53.588;10.010;2023-09-18T11:56:39;23.10;99.90
5280;DHT22;2663;53.588;10.010;2023-09-18T11:59:06;23.10;99.90
5280;DHT22;2663;53.588;10.010;2023-09-18T12:01:33;23.20;99.90
5280;DHT22;2663;53.588;10.010;2023-09-18T12:04:03;23.20;99.90
5280;DHT22;2663;53.588;10.010;2023-09-18T12:06:35;23.20;99.90
5280;DHT22;2663;53.588;10.010;2023-09-18T12:09:06;23.20;99.90
5280;DHT22;2663;53.588;10.010;2023-09-18T12:11:33;23.30;99.90
5280;DHT22;2663;53.588;10.010;2023-09-18T12:14:08;23.30;99.90
5280;DHT22;2663;53.588;10.010;2023-09-18T12:16:38;23.30;99.90
5280;DHT22;2663;53.588;10.010;2023-09-18T12:19:06;23.20;99.90
5280;DHT22;2663;53.588;10.010;2023-09-18T12:21:40;23.20;99.90
5280;DHT22;2663;53.588;10.010;2023-09-18T12:24:13;23.30;99.90
5280;DHT22;2663;53.588;10.010;2023-09-18T12:26:40;23.40;99.90
5280;DHT22;2663;53.588;10.010;2023-09-18T12:29:08;23.40;99.90
5280;DHT22;2663;53.588;10.010;2023-09-18T12:31:35;23.50;99.90
5280;DHT22;2663;53.588;10.010;2023-09-18T12:34:02;23.60;99.90
5280;DHT22;2663;53.588;10.010;2023-09-18T12:36:29;23.40;99.90
5280;DHT22;2663;53.588;10.010;2023-09-18T12:38:57;23.50;99.90
5280;DHT22;2663;53.588;10.010;2023-09-18T12:41:25;23.50;99.90
5280;DHT22;2663;53.588;10.010;2023-09-18T12:43:58;23.50;99.90
5280;DHT22;2663;53.588;10.010;2023-09-18T12:46:26;23.50;99.90
5280;DHT22;2663;53.588;10.010;2023-09-18T12:48:52;23.60;99.90
5280;DHT22;2663;53.588;10.010;2023-09-18T12:51:29;23.60;99.90
5280;DHT22;2663;53.588;10.010;2023-09-18T12:54:01;23.70;99.90
5280;DHT22;2663;53.588;10.010;2023-09-18T12:56:34;23.70;99.90
5280;DHT22;2663;53.588;10.010;2023-09-18T12:59:06;23.80;99.90
5280;DHT22;2663;53.588;10.010;2023-09-18T13:01:46;23.90;99.90
5280;DHT22;2663;53.588;10.010;2023-09-18T13:04:13;24.90;99.90
5280;DHT22;2663;53.588;10.010;2023-09-18T13:06:40;24.00;99.90
5280;DHT22;2663;53.588;10.010;2023-09-18T13:09:18;24.00;99.90
5280;DHT22;2663;53.588;10.010;2023-09-18T13:11:56;24.10;99.90
5280;DHT22;2663;53.588;10.010;2023-09-18T13:14:24;24.20;99.90
5280;DHT22;2663;53.588;10.010;2023-09-18T13:16:51;24.20;99.90
5280;DHT22;2663;53.588;10.010;2023-09-18T13:19:18;24.10;99.90
5280;DHT22;2663;53.588;10.010;2023-09-18T13:21:49;24.10;99.90
5280;DHT22;2663;53.588;10.010;2023-09-18T13:24:28;24.10;99.90
5280;DHT22;2663;53.588;10.010;2023-09-18T13:26:56;24.10;99.90
5280;DHT22;2663;53.588;10.010;2023-09-18T13:29:25;24.10;99.90
5280;DHT22;2663;53.588;10.010;2023-09-18T13:31:52;24.00;99.90
5280;DHT22;2663;53.588;10.010;2023-09-18T13:34:19;24.00;99.90
5280;DHT22;2663;53.588;10.010;2023-09-18T13:36:46;24.00;99.90
5280;DHT22;2663;53.588;10.010;2023-09-18T13:39:13;23.80;99.90
5280;DHT22;2663;53.588;10.010;2023-09-18T13:41:40;23.80;99.90
5280;DHT22;2663;53.588;10.010;2023-09-18T13:44:07;23.80;99.90
5280;DHT22;2663;53.588;10.010;2023-09-18T13:46:34;23.80;99.90
5280;DHT22;2663;53.588;10.010;2023-09-18T13:49:05;23.80;99.90
5280;DHT22;2663;53.588;10.010;2023-09-18T13:51:33;23.80;99.90
5280;DHT22;2663;53.588;10.010;2023-09-18T13:54:00;23.90;99.90
5280;DHT22;2663;53.588;10.010;2023-09-18T13:56:27;23.80;99.90
5280;DHT22;2663;53.588;10.010;2023-09-18T13:58:57;23.90;99.90
5280;DHT22;2663;53.588;10.010;2023-09-18T14:03:52;23.80;99.90
5280;DHT22;2663;53.588;10.010;2023-09-18T14:06:20;23.80;99.90
5280;DHT22;2663;53.588;10.010;2023-09-18T14:08:47;23.60;99.90
5280;DHT22;2663;53.588;10.010;2023-09-18T14:11:14;23.60;99.90
5280;DHT22;2663;53.588;10.010;2023-09-18T14:13:41;23.60;99.90
5280;DHT22;2663;53.588;10.010;2023-09-18T14:16:08;23.60;99.90
5280;DHT22;2663;53.588;10.010;2023-09-18T14:18:36;24.30;99.90
5280;DHT22;2663;53.588;10.010;2023-09-18T14:21:03;23.60;99.90
5280;DHT22;2663;53.588;10.010;2023-09-18T14:23:31;23.60;99.90
5280;DHT22;2663;53.588;10.010;2023-09-18T14:25:58;23.70;99.90
5280;DHT22;2663;53.588;10.010;2023-09-18T14:28:25;23.70;99.90
5280;DHT22;2663;53.588;10.010;2023-09-18T14:30:52;23.80;99.90
5280;DHT22;2663;53.588;10.010;2023-09-18T14:33:19;23.90;99.90
5280;DHT22;2663;53.588;10.010;2023-09-18T14:35:45;23.90;99.90
5280;DHT22;2663;53.588;10.010;2023-09-18T14:38:12;24.10;99.90
5280;DHT22;2663;53.588;10.010;2023-09-18T14:40:41;24.30;99.90
5280;DHT22;2663;53.588;10.010;2023-09-18T14:43:08;24.50;99.90
5280;DHT22;2663;53.588;10.010;2023-09-18T14:45:35;24.60;99.90
5280;DHT22;2663;53.588;10.010;2023-09-18T14:48:02;24.60;99.90
5280;DHT22;2663;53.588;10.010;2023-09-18T14:50:29;24.60;99.90
5280;DHT22;2663;53.588;10.010;2023-09-18T14:52:56;24.60;99.90
5280;DHT22;2663;53.588;10.010;2023-09-18T14:55:22;24.40;99.90
5280;DHT22;2663;53.588;10.010;2023-09-18T14:57:50;24.20;99.90
5280;DHT22;2663;53.588;10.010;2023-09-18T15:00:20;24.20;99.90
5280;DHT22;2663;53.588;10.010;2023-09-18T15:02:47;24.30;99.90
5280;DHT22;2663;53.588;10.010;2023-09-18T15:05:14;24.30;99.90
5280;DHT22;2663;53.588;10.010;2023-09-18T15:07:42;24.20;99.90
5280;DHT22;2663;53.588;10.010;2023-09-18T15:10:09;24.10;99.90
5280;DHT22;2663;53.588;10.010;2023-09-18T15:12:37;24.10;99.90
5280;DHT22;2663;53.588;10.010;2023-09-18T15:15:04;24.10;99.90
5280;DHT22;2663;53.588;10.010;2023-09-18T15:17:31;24.10;99.90
5280;DHT22;2663;53.588;10.010;2023-09-18T15:19:59;24.10;99.90
5280;DHT22;2663;53.588;10.010;2023-09-18T15:22:26;24.10;99.90
5280;DHT22;2663;53.588;10.010;2023-09-18T15:24:53;24.10;99.90
5280;DHT22;2663;53.588;10.010;2023-09-18T15:27:23;24.20;99.90
5280;DHT22;2663;53.588;10.010;2023-09-18T15:29:50;24.20;99.90
5280;DHT22;2663;53.588;10.010;2023-09-18T15:32:17;24.20;99.90
5280;DHT22;2663;53.588;10.010;2023-09-18T15:34:46;24.20;99.90
5280;DHT22;2663;53.588;10.010;2023-09-18T15:37:14;24.30;99.90
5280;DHT22;2663;53.588;10.010;2023-09-18T15:39:43;24.40;99.90
5280;DHT22;2663;53.588;10.010;2023-09-18T15:42:09;24.40;99.90
5280;DHT22;2663;53.588;10.010;2023-09-18T15:44:36;24.80;99.90
5280;DHT22;2663;53.588;10.010;2023-09-18T15:47:04;24.30;99.90
5280;DHT22;2663;53.588;10.010;2023-09-18T15:49:31;24.30;99.90
5280;DHT22;2663;53.588;10.010;2023-09-18T15:51:58;24.30;99.90
5280;DHT22;2663;53.588;10.010;2023-09-18T15:54:25;24.40;99.90
5280;DHT22;2663;53.588;10.010;2023-09-18T15:56:52;24.40;99.90
5280;DHT22;2663;53.588;10.010;2023-09-18T15:59:19;24.30;99.90
5280;DHT22;2663;53.588;10.010;2023-09-18T16:01:46;24.30;99.90
5280;DHT22;2663;53.588;10.010;2023-09-18T16:04:13;24.30;99.90
5280;DHT22;2663;53.588;10.010;2023-09-18T16:06:40;24.40;99.90
5280;DHT22;2663;53.588;10.010;2023-09-18T16:09:07;24.20;99.90
5280;DHT22;2663;53.588;10.010;2023-09-18T16:11:36;24.10;99.90
5280;DHT22;2663;53.588;10.010;2023-09-18T16:14:03;24.10;99.90
5280;DHT22;2663;53.588;10.010;2023-09-18T16:16:30;24.10;99.90